Time;durP1;ratioP1;P1;durP2;ratioP2;P2;SDS_P1;SDS_P2;PMS_P1;PMS_P2;Temp;Humidity;BMP_temperature;BMP_pressure;BME280_temperature;BME280_humidity;BME280_pressure;Samples;Min_cycle;Max_cycle;Signal;HPM_P1;HPM_P2
2023/04/10 00:00:07;;;;;;;21.60;13.55;;;0.40;99.90;;;;;;5023307;28;20410;-46
2023/04/10 00:02:36;;;;;;;24.95;14.68;;;0.40;99.90;;;;;;5025713;28;20049;-46
2023/04/10 00:05:06;;;;;;;22.88;13.88;;;0.40;99.90;;;;;;5022832;28;20049;-46
2023/04/10 00:07:33;;;;;;;25.42;16.88;;;0.40;99.90;;;;;;5023168;28;20038;-46
2023/04/10 00:10:01;;;;;;;20.80;14.82;;;0.50;99.90;;;;;;5022598;28;20041;-46
2023/04/10 00:12:29;;;;;;;20.58;14.10;;;0.40;99.90;;;;;;5023312;28;20046;-47
2023/04/10 00:14:57;;;;;;;20.17;12.77;;;0.30;99.90;;;;;;5021221;28;20430;-47
2023/04/10 00:17:25;;;;;;;22.23;13.95;;;0.10;99.90;;;;;;5023234;28;20045;-46
2023/04/10 00:19:52;;;;;;;20.10;13.38;;;-0.10;99.90;;;;;;5021714;28;20054;-46
2023/04/10 00:22:20;;;;;;;24.90;15.18;;;-0.20;99.90;;;;;;5023073;28;20045;-47
2023/04/10 00:24:48;;;;;;;23.02;15.20;;;-0.20;99.90;;;;;;5023249;28;20038;-47
2023/04/10 00:27:15;;;;;;;27.13;14.65;;;-0.20;99.90;;;;;;5023210;28;20055;-47
2023/04/10 00:29:43;;;;;;;29.27;17.50;;;-0.10;99.90;;;;;;5023563;28;20444;-47
2023/04/10 00:32:10;;;;;;;28.42;16.38;;;0.00;99.90;;;;;;5022743;28;20069;-46
2023/04/10 00:34:38;;;;;;;24.67;17.52;;;0.20;99.90;;;;;;5019346;28;20366;-46
2023/04/10 00:37:06;;;;;;;22.33;13.93;;;0.20;99.90;;;;;;5022719;28;20056;-46
2023/04/10 00:39:33;;;;;;;21.15;13.63;;;0.10;99.90;;;;;;5028156;28;20050;-46
2023/04/10 00:42:01;;;;;;;23.63;15.18;;;-0.10;99.90;;;;;;5022201;28;20045;-46
2023/04/10 00:44:28;;;;;;;26.05;16.70;;;-0.20;99.90;;;;;;5021563;28;20045;-47
2023/04/10 00:46:56;;;;;;;24.77;16.38;;;-0.20;99.90;;;;;;5022622;28;20057;-47
2023/04/10 00:49:24;;;;;;;25.85;16.50;;;0.00;99.90;;;;;;5021652;28;20080;-47
2023/04/10 00:51:53;;;;;;;28.77;16.70;;;0.00;99.90;;;;;;5021993;28;20951;-47
2023/04/10 00:54:22;;;;;;;21.98;13.40;;;0.00;99.90;;;;;;5008956;28;20061;-47
2023/04/10 00:56:52;;;;;;;25.13;14.23;;;0.10;99.90;;;;;;5022923;28;20485;-47
2023/04/10 00:59:20;;;;;;;18.60;14.30;;;0.00;99.90;;;;;;5021025;28;20449;-47
2023/04/10 01:01:48;;;;;;;25.30;15.63;;;-0.30;99.90;;;;;;5020411;28;20068;-47
2023/04/10 01:04:16;;;;;;;25.00;15.00;;;-0.50;99.90;;;;;;5024601;28;20045;-47
2023/04/10 01:07:17;;;;;;;27.50;16.48;;;-0.50;99.90;;;;;;5023208;28;20448;-46
2023/04/10 01:10:02;;;;;;;25.15;14.52;;;-0.30;99.90;;;;;;5021812;28;20050;-46
2023/04/10 01:12:35;;;;;;;21.52;13.38;;;-0.20;99.90;;;;;;5004339;28;20048;-46
2023/04/10 01:15:14;;;;;;;30.23;15.98;;;-0.10;99.90;;;;;;5021094;28;20056;-46
2023/04/10 01:18:08;;;;;;;21.63;13.90;;;-0.20;99.90;;;;;;5022585;28;20493;-46
2023/04/10 01:20:38;;;;;;;20.40;14.40;;;-0.20;99.90;;;;;;4988178;28;20049;-46
2023/04/10 01:23:38;;;;;;;22.58;13.20;;;-0.40;99.90;;;;;;5021780;28;20052;-45
2023/04/10 01:26:09;;;;;;;19.60;13.63;;;-0.30;99.90;;;;;;5021075;28;20461;-47
2023/04/10 01:29:02;;;;;;;20.05;11.50;;;-0.30;99.90;;;;;;5021887;28;20057;-46
2023/04/10 01:31:42;;;;;;;20.58;12.98;;;-0.30;99.90;;;;;;5009150;28;20049;-46
2023/04/10 01:34:16;;;;;;;18.10;12.75;;;-0.20;99.90;;;;;;5019245;28;20095;-46
2023/04/10 01:36:51;;;;;;;31.13;13.32;;;-0.30;99.90;;;;;;5018354;28;20060;-47
2023/04/10 01:39:20;;;;;;;19.83;13.02;;;-0.20;99.90;;;;;;5020838;28;20046;-47
2023/04/10 01:41:55;;;;;;;19.77;12.88;;;-0.20;99.90;;;;;;5020511;28;20041;-47
2023/04/10 01:44:35;;;;;;;18.55;14.27;;;-0.20;99.90;;;;;;5025065;28;20046;-46
2023/04/10 01:47:06;;;;;;;21.13;13.57;;;-0.20;99.90;;;;;;5022173;28;20038;-46
2023/04/10 01:49:36;;;;;;;20.63;12.77;;;-0.20;99.90;;;;;;5023565;28;20064;-46
2023/04/10 01:52:05;;;;;;;40.05;16.13;;;-0.30;99.90;;;;;;5008771;28;20689;-47
2023/04/10 01:54:35;;;;;;;23.65;14.68;;;-0.30;99.90;;;;;;5027478;28;20434;-46
2023/04/10 01:57:03;;;;;;;20.88;14.90;;;-0.30;99.90;;;;;;5011830;28;20061;-46
2023/04/10 01:59:39;;;;;;;19.00;13.73;;;-0.30;99.90;;;;;;5008515;28;20050;-47
2023/04/10 02:02:10;;;;;;;22.83;15.15;;;-0.20;99.90;;;;;;5013050;28;22379;-46
2023/04/10 02:04:38;;;;;;;21.88;14.27;;;-0.10;99.90;;;;;;5023471;28;20049;-46
2023/04/10 02:07:16;;;;;;;20.08;13.70;;;-0.10;99.90;;;;;;5025216;28;20041;-46
2023/04/10 02:09:56;;;;;;;14.93;10.10;;;-0.20;99.90;;;;;;5025860;28;20385;-46
2023/04/10 02:12:44;;;;;;;19.60;10.40;;;-0.50;99.90;;;;;;4989962;28;20045;-46
2023/04/10 02:15:13;;;;;;;15.00;10.27;;;-0.70;99.90;;;;;;5024984;28;20056;-46
2023/04/10 02:17:41;;;;;;;19.05;11.98;;;-0.90;99.90;;;;;;5010085;28;20049;-35
2023/04/10 02:20:10;;;;;;;15.77;11.60;;;-0.80;99.90;;;;;;5023067;28;20046;-34
2023/04/10 02:22:42;;;;;;;14.55;11.00;;;-0.80;99.90;;;;;;5024950;28;20417;-34
2023/04/10 02:25:10;;;;;;;14.50;10.13;;;-0.70;99.90;;;;;;5025176;28;20057;-34
2023/04/10 02:27:38;;;;;;;17.77;11.45;;;-0.60;99.90;;;;;;5024577;28;20034;-34
2023/04/10 02:30:06;;;;;;;17.23;12.43;;;-0.60;99.90;;;;;;5011865;28;20053;-35
2023/04/10 02:32:35;;;;;;;17.08;13.00;;;-0.60;99.90;;;;;;5010970;28;20049;-34
2023/04/10 02:35:07;;;;;;;19.60;12.48;;;-0.60;99.90;;;;;;5008509;28;20057;-34
2023/04/10 02:37:36;;;;;;;24.52;13.35;;;-0.50;99.90;;;;;;5025642;28;20045;-34
2023/04/10 02:40:05;;;;;;;26.70;13.57;;;-0.60;99.90;;;;;;5024259;28;20076;-34
2023/04/10 02:42:42;;;;;;;58.25;11.98;;;-0.70;99.90;;;;;;5025727;28;20461;-34
2023/04/10 02:45:10;;;;;;;19.67;12.70;;;-0.70;99.90;;;;;;5014436;28;20260;-34
2023/04/10 02:47:41;;;;;;;17.58;11.93;;;-0.70;99.90;;;;;;5009407;28;20048;-33
2023/04/10 02:50:10;;;;;;;15.63;11.15;;;-0.70;99.90;;;;;;5026757;28;20049;-33
2023/04/10 02:52:40;;;;;;;22.40;11.68;;;-0.60;99.90;;;;;;5025487;28;20049;-34
2023/04/10 02:55:09;;;;;;;18.88;10.95;;;-0.50;99.90;;;;;;5011248;28;20045;-33
2023/04/10 02:57:38;;;;;;;20.35;11.10;;;-0.50;99.90;;;;;;5027675;28;20077;-33
2023/04/10 03:00:06;;;;;;;18.23;10.35;;;-0.50;99.90;;;;;;5023186;28;20060;-35
2023/04/10 03:02:56;;;;;;;12.73;9.13;;;-0.60;99.90;;;;;;4984877;28;20053;-34
2023/04/10 03:05:29;;;;;;;12.65;9.40;;;-0.80;99.90;;;;;;5023130;28;20055;-34
2023/04/10 03:07:57;;;;;;;17.30;12.52;;;-1.00;99.90;;;;;;5024226;28;20049;-34
2023/04/10 03:10:24;;;;;;;16.92;9.57;;;-1.10;99.90;;;;;;5023450;28;20041;-33
2023/04/10 03:12:53;;;;;;;14.88;10.02;;;-1.00;99.90;;;;;;5024834;28;20086;-34
2023/04/10 03:15:20;;;;;;;15.95;10.52;;;-1.10;99.90;;;;;;5021872;28;20049;-34
2023/04/10 03:17:49;;;;;;;15.77;9.80;;;-1.20;99.90;;;;;;5024628;28;20057;-35
2023/04/10 03:20:17;;;;;;;17.73;10.15;;;-1.10;99.90;;;;;;5022215;28;20056;-34
2023/04/10 03:22:45;;;;;;;14.00;10.00;;;-1.10;99.90;;;;;;5023986;28;20302;-34
2023/04/10 03:25:12;;;;;;;19.23;12.15;;;-1.00;99.90;;;;;;5009922;28;20425;-34
2023/04/10 03:27:40;;;;;;;25.98;11.90;;;-0.90;99.90;;;;;;5024161;28;20041;-34
2023/04/10 03:30:08;;;;;;;17.60;8.98;;;-0.90;99.90;;;;;;5023514;28;20041;-35
2023/04/10 03:32:41;;;;;;;13.82;11.13;;;-0.90;99.90;;;;;;5024552;28;20041;-34
2023/04/10 03:35:09;;;;;;;20.45;13.00;;;-0.80;99.90;;;;;;5013086;28;20045;-35
2023/04/10 03:37:37;;;;;;;16.67;10.88;;;-0.80;99.90;;;;;;5022096;28;20205;-35
2023/04/10 03:40:06;;;;;;;14.20;9.82;;;-0.80;99.90;;;;;;5023399;28;20052;-35
2023/04/10 03:42:34;;;;;;;17.10;10.73;;;-0.80;99.90;;;;;;5026857;28;20056;-35
2023/04/10 03:45:05;;;;;;;16.05;10.13;;;-0.90;99.90;;;;;;5027424;28;20072;-35
2023/04/10 03:47:33;;;;;;;21.02;13.88;;;-0.90;99.90;;;;;;5013718;28;20052;-35
2023/04/10 03:50:03;;;;;;;17.33;9.38;;;-0.90;99.90;;;;;;5025293;28;20060;-35
2023/04/10 03:52:39;;;;;;;17.92;11.43;;;-0.90;99.90;;;;;;5010493;28;20052;-35
2023/04/10 03:55:11;;;;;;;16.92;9.20;;;-0.90;99.90;;;;;;5025139;28;20050;-35
2023/04/10 03:57:39;;;;;;;17.33;12.50;;;-1.00;99.90;;;;;;5023358;28;20065;-37
2023/04/10 04:00:07;;;;;;;15.50;11.23;;;-1.00;99.90;;;;;;5022992;28;20433;-38
2023/04/10 04:02:49;;;;;;;16.27;10.48;;;-1.00;99.90;;;;;;5021654;28;20048;-38
2023/04/10 04:05:37;;;;;;;11.05;7.65;;;-0.90;99.90;;;;;;5020605;28;20414;-38
2023/04/10 04:08:22;;;;;;;11.38;9.25;;;-1.10;99.90;;;;;;4998057;28;20395;-37
2023/04/10 04:11:08;;;;;;;14.85;10.65;;;-1.40;99.90;;;;;;5020785;28;20041;-38
2023/04/10 04:13:46;;;;;;;13.98;10.73;;;-1.50;99.90;;;;;;5006351;28;20048;-38
2023/04/10 04:16:28;;;;;;;19.30;11.98;;;-1.40;99.90;;;;;;4993055;28;20052;-38
2023/04/10 04:19:31;;;;;;;19.42;11.43;;;-1.50;99.90;;;;;;5010969;28;20449;-38
2023/04/10 04:22:17;;;;;;;14.63;10.10;;;-1.40;99.90;;;;;;5021903;28;20071;-38
2023/04/10 04:25:07;;;;;;;26.45;13.60;;;-1.30;99.90;;;;;;5023053;28;20045;-38
2023/04/10 04:28:14;;;;;;;17.17;11.57;;;-1.20;99.90;;;;;;4941895;28;20444;-39
2023/04/10 04:31:11;;;;;;;21.50;13.02;;;-1.00;99.90;;;;;;4877612;29;20625;-39
2023/04/10 04:34:08;;;;;;;16.45;9.85;;;-1.00;99.90;;;;;;5000153;28;20048;-39
2023/04/10 04:37:01;;;;;;;15.45;9.07;;;-1.10;99.90;;;;;;5017665;28;20293;-38
2023/04/10 04:39:58;;;;;;;13.75;9.48;;;-1.30;99.90;;;;;;4968066;28;20407;-37
2023/04/10 04:42:38;;;;;;;16.98;11.75;;;-1.40;99.90;;;;;;5007213;28;20049;-35
2023/04/10 04:45:15;;;;;;;17.75;10.10;;;-1.50;99.90;;;;;;5030018;28;20058;-39
2023/04/10 04:48:02;;;;;;;16.20;10.75;;;-1.40;99.90;;;;;;5019703;28;20049;-45
2023/04/10 04:50:43;;;;;;;19.40;12.70;;;-1.30;99.90;;;;;;5013929;28;20049;-36
2023/04/10 04:53:36;;;;;;;22.90;10.25;;;-1.20;99.90;;;;;;5008551;28;20365;-36
2023/04/10 04:56:24;;;;;;;19.35;10.57;;;-1.10;99.90;;;;;;4993041;28;20050;-36
2023/04/10 04:59:18;;;;;;;16.13;11.27;;;-1.00;99.90;;;;;;5017535;28;20422;-36
2023/04/10 05:01:56;;;;;;;16.50;11.90;;;-0.90;99.90;;;;;;5021653;28;20378;-36
2023/04/10 05:04:33;;;;;;;18.13;11.50;;;-0.90;99.90;;;;;;5021494;28;20413;-39
2023/04/10 05:07:20;;;;;;;13.13;9.63;;;-0.80;99.90;;;;;;5022321;28;20045;-38
2023/04/10 05:10:10;;;;;;;19.52;12.25;;;-0.80;99.90;;;;;;5016980;28;20068;-38
2023/04/10 05:13:01;;;;;;;17.45;12.27;;;-1.10;99.90;;;;;;5016798;28;20060;-40
2023/04/10 05:15:48;;;;;;;22.08;11.55;;;-1.10;99.90;;;;;;5022246;28;20439;-38
2023/04/10 05:18:36;;;;;;;15.60;11.55;;;-1.10;99.90;;;;;;5019187;28;20049;-36
2023/04/10 05:21:14;;;;;;;15.65;11.20;;;-1.00;99.90;;;;;;5021983;28;20401;-40
2023/04/10 05:24:02;;;;;;;21.05;11.52;;;-0.90;99.90;;;;;;5021000;28;20054;-38
2023/04/10 05:27:00;;;;;;;18.73;11.05;;;-0.70;99.90;;;;;;5025167;28;20049;-39
2023/04/10 05:29:46;;;;;;;17.10;11.32;;;-0.50;99.90;;;;;;5026191;28;20225;-38
2023/04/10 05:32:46;;;;;;;19.15;12.30;;;-0.40;99.90;;;;;;4960211;28;20049;-38
2023/04/10 05:35:37;;;;;;;21.35;12.15;;;-0.20;99.90;;;;;;5009047;28;20861;-41
2023/04/10 05:38:18;;;;;;;17.60;12.13;;;0.00;99.90;;;;;;5026727;28;20072;-38
2023/04/10 05:41:15;;;;;;;18.75;11.63;;;0.20;99.90;;;;;;5002934;28;20600;-41
2023/04/10 05:44:00;;;;;;;14.23;11.07;;;0.30;99.90;;;;;;5010490;28;20084;-38
2023/04/10 05:46:48;;;;;;;17.52;11.65;;;0.60;99.90;;;;;;4994714;28;20057;-38
2023/04/10 05:49:19;;;;;;;23.48;14.00;;;0.90;99.90;;;;;;5024915;28;20053;-37
2023/04/10 05:51:57;;;;;;;18.83;11.65;;;1.10;99.90;;;;;;5026131;28;20045;-40
2023/04/10 05:54:43;;;;;;;18.00;12.35;;;1.40;99.90;;;;;;5030301;28;20041;-37
2023/04/10 05:57:30;;;;;;;21.38;12.32;;;1.80;99.90;;;;;;5022312;28;20433;-37
2023/04/10 06:00:18;;;;;;;19.23;12.10;;;2.40;99.90;;;;;;5024236;28;20061;-37
2023/04/10 06:03:05;;;;;;;20.40;12.52;;;2.90;99.90;;;;;;5023842;28;20285;-37
2023/04/10 06:05:44;;;;;;;19.02;10.85;;;3.40;99.90;;;;;;5013310;28;20057;-36
2023/04/10 06:08:12;;;;;;;17.05;11.02;;;3.40;99.90;;;;;;5024179;28;20420;-37
2023/04/10 06:10:39;;;;;;;16.00;12.00;;;3.60;99.90;;;;;;5025159;28;20045;-34
2023/04/10 06:13:11;;;;;;;14.77;10.85;;;3.80;99.90;;;;;;5029430;28;20049;-34
2023/04/10 06:15:38;;;;;;;16.23;11.27;;;4.00;99.90;;;;;;5030532;28;20041;-34
2023/04/10 06:18:08;;;;;;;15.48;10.13;;;4.30;99.90;;;;;;5026880;28;20054;-34
2023/04/10 06:20:37;;;;;;;16.02;10.63;;;4.70;99.90;;;;;;5023346;28;20421;-34
2023/04/10 06:23:05;;;;;;;13.93;10.18;;;4.90;99.90;;;;;;5032003;28;20053;-34
2023/04/10 06:25:33;;;;;;;17.40;11.48;;;5.30;99.90;;;;;;5025653;28;20264;-34
2023/04/10 06:28:00;;;;;;;15.77;12.23;;;5.70;99.90;;;;;;5026734;28;20046;-34
2023/04/10 06:30:29;;;;;;;18.30;11.63;;;6.20;99.90;;;;;;5024672;28;20076;-34
2023/04/10 06:32:57;;;;;;;13.98;11.10;;;6.30;99.90;;;;;;5028039;28;20526;-34
2023/04/10 06:35:26;;;;;;;19.25;11.13;;;7.00;99.90;;;;;;5022920;28;20049;-34
2023/04/10 06:37:53;;;;;;;16.52;10.48;;;7.70;99.90;;;;;;5025112;28;20057;-34
2023/04/10 06:40:21;;;;;;;19.00;11.60;;;8.40;99.90;;;;;;5024325;28;20421;-34
2023/04/10 06:42:48;;;;;;;15.43;11.02;;;8.70;99.90;;;;;;5024719;28;20052;-34
2023/04/10 06:45:28;;;;;;;14.30;11.43;;;9.40;99.90;;;;;;5010337;28;20525;-34
2023/04/10 06:47:56;;;;;;;13.00;9.40;;;10.30;99.90;;;;;;5024466;28;20037;-34
2023/04/10 06:50:23;;;;;;;13.82;9.82;;;10.40;99.90;;;;;;5022758;28;20048;-34
2023/04/10 06:52:54;;;;;;;14.38;9.25;;;10.60;99.90;;;;;;5024719;28;20054;-34
2023/04/10 06:55:22;;;;;;;15.88;10.27;;;10.70;99.90;;;;;;5018716;28;20053;-34
2023/04/10 06:57:49;;;;;;;13.80;10.15;;;11.00;99.90;;;;;;5011662;28;20065;-34
2023/04/10 07:00:18;;;;;;;11.68;10.00;;;11.30;99.90;;;;;;5024154;28;20053;-35
2023/04/10 07:02:46;;;;;;;14.32;10.90;;;11.80;99.90;;;;;;5023803;28;20053;-34
2023/04/10 07:05:15;;;;;;;13.35;8.57;;;12.00;99.90;;;;;;5023142;28;20069;-35
2023/04/10 07:07:42;;;;;;;11.70;9.45;;;12.10;99.90;;;;;;5023864;28;20406;-35
2023/04/10 07:10:10;;;;;;;9.25;7.45;;;12.30;99.90;;;;;;5023696;28;20037;-35
2023/04/10 07:12:38;;;;;;;10.80;8.20;;;12.80;99.90;;;;;;5024510;28;20505;-35
2023/04/10 07:15:06;;;;;;;12.00;8.35;;;13.60;98.90;;;;;;5022681;28;20048;-34
2023/04/10 07:17:34;;;;;;;12.32;8.20;;;14.30;97.60;;;;;;5024227;28;20410;-35
2023/04/10 07:20:02;;;;;;;11.32;6.80;;;14.80;94.50;;;;;;5019959;28;20050;-34
2023/04/10 07:22:30;;;;;;;8.10;6.47;;;14.80;92.60;;;;;;5024061;28;20037;-34
2023/04/10 07:24:58;;;;;;;8.88;7.78;;;14.90;94.10;;;;;;5023964;28;20415;-35
2023/04/10 07:27:26;;;;;;;8.10;6.30;;;15.80;91.30;;;;;;5024168;28;20048;-35
2023/04/10 07:29:57;;;;;;;9.95;8.25;;;16.40;87.80;;;;;;5024066;28;20509;-34
2023/04/10 07:32:25;;;;;;;;;;;14.90;92.20;;;;;;5024690;28;20293;-35
2023/04/10 07:34:53;;;;;;;8.15;7.30;;;15.30;92.80;;;;;;5023058;28;19932;-34
2023/04/10 07:37:21;;;;;;;11.23;6.75;;;15.10;92.90;;;;;;5024287;28;20053;-34
2023/04/10 07:39:48;;;;;;;12.57;8.00;;;14.80;92.90;;;;;;5024292;28;20041;-35
2023/04/10 07:42:17;;;;;;;9.68;7.15;;;15.30;91.10;;;;;;5022921;28;20049;-34
2023/04/10 07:44:44;;;;;;;11.98;7.28;;;14.90;94.00;;;;;;5023985;28;20053;-34
2023/04/10 07:47:12;;;;;;;7.97;7.18;;;13.20;97.20;;;;;;5021747;28;20242;-35
2023/04/10 07:49:40;;;;;;;9.45;6.93;;;13.50;99.30;;;;;;5018835;28;20046;-35
2023/04/10 07:52:08;;;;;;;9.63;8.40;;;15.20;94.60;;;;;;5020480;28;20066;-35
2023/04/10 07:54:35;;;;;;;7.57;6.03;;;16.00;90.90;;;;;;5016040;28;20296;-35
2023/04/10 07:57:03;;;;;;;8.00;7.22;;;16.00;91.00;;;;;;5019932;28;20056;-35
2023/04/10 07:59:30;;;;;;;8.50;6.47;;;15.90;90.40;;;;;;5016736;28;20042;-35
2023/04/10 08:01:58;;;;;;;9.88;7.38;;;16.50;83.30;;;;;;5022304;28;20286;-34
2023/04/10 08:04:26;;;;;;;10.15;6.75;;;15.80;90.00;;;;;;5017753;28;20049;-35
2023/04/10 08:06:54;;;;;;;10.10;6.65;;;15.20;90.40;;;;;;5024952;28;20052;-47
2023/04/10 08:09:21;;;;;;;9.98;7.07;;;16.10;90.80;;;;;;5023347;28;20053;-47
2023/04/10 08:11:49;;;;;;;9.73;7.03;;;15.60;89.10;;;;;;5022357;28;20402;-47
2023/04/10 08:14:16;;;;;;;10.15;6.32;;;15.10;94.20;;;;;;5020005;28;20045;-47
2023/04/10 08:16:45;;;;;;;8.57;6.78;;;15.30;92.70;;;;;;5031399;28;20052;-47
2023/04/10 08:19:12;;;;;;;9.13;7.22;;;15.90;90.20;;;;;;5018048;28;20053;-47
2023/04/10 08:21:40;;;;;;;9.48;6.68;;;16.40;90.10;;;;;;5022019;28;20053;-47
2023/04/10 08:24:07;;;;;;;10.40;6.40;;;16.90;83.60;;;;;;5029729;28;20727;-47
2023/04/10 08:26:35;;;;;;;9.68;6.35;;;17.30;83.60;;;;;;5017212;28;20053;-46
2023/04/10 08:29:02;;;;;;;11.63;6.85;;;17.20;86.10;;;;;;5019252;28;20513;-46
2023/04/10 08:31:30;;;;;;;8.50;7.00;;;16.70;82.80;;;;;;5022979;28;20061;-47
2023/04/10 08:33:58;;;;;;;9.60;6.97;;;15.70;86.30;;;;;;5018405;28;20580;-47
2023/04/10 08:36:26;;;;;;;9.90;7.75;;;15.80;89.90;;;;;;5027976;28;20048;-47
2023/04/10 08:38:54;;;;;;;8.48;6.30;;;16.40;88.60;;;;;;5034515;28;20033;-47
2023/04/10 08:41:21;;;;;;;6.28;4.57;;;16.50;84.60;;;;;;5018462;28;20054;-46
2023/04/10 08:43:49;;;;;;;9.95;6.50;;;16.80;81.30;;;;;;5020164;28;20532;-47
2023/04/10 08:46:17;;;;;;;10.65;7.80;;;16.50;85.40;;;;;;5026351;28;20524;-47
2023/04/10 08:49:00;;;;;;;9.20;6.80;;;15.50;87.40;;;;;;5017855;28;20057;-47
2023/04/10 08:51:40;;;;;;;9.93;7.18;;;14.70;91.70;;;;;;5021672;28;20545;-46
2023/04/10 08:54:20;;;;;;;11.68;7.97;;;14.00;95.40;;;;;;5020627;28;20945;-45
2023/04/10 08:56:52;;;;;;;6.50;5.63;;;14.10;96.70;;;;;;5022981;28;20050;-47
2023/04/10 08:59:20;;;;;;;7.45;5.75;;;14.10;95.00;;;;;;5024265;28;20050;-47
2023/04/10 09:01:48;;;;;;;8.55;7.10;;;14.20;94.90;;;;;;5032222;28;20045;-47
2023/04/10 09:04:16;;;;;;;8.70;7.30;;;13.20;97.30;;;;;;5025476;28;20048;-47
2023/04/10 09:06:45;;;;;;;6.40;4.93;;;13.40;98.00;;;;;;5025635;28;20247;-46
2023/04/10 09:09:13;;;;;;;10.23;6.53;;;13.90;94.20;;;;;;5025809;28;20502;-47
2023/04/10 09:11:59;;;;;;;8.00;6.20;;;14.30;95.40;;;;;;5026389;28;20046;-46
2023/04/10 09:14:31;;;;;;;7.78;6.60;;;15.70;92.70;;;;;;5013482;28;20041;-47
2023/04/10 09:17:22;;;;;;;8.98;5.28;;;15.60;91.10;;;;;;5026200;28;20708;-46
2023/04/10 09:19:54;;;;;;;5.50;4.30;;;14.60;93.00;;;;;;5031719;28;20041;-47
2023/04/10 09:22:33;;;;;;;11.85;5.90;;;13.80;94.10;;;;;;5025107;28;20064;-47
2023/04/10 09:25:03;;;;;;;7.07;5.93;;;13.20;97.90;;;;;;5025775;28;20390;-48
2023/04/10 09:27:34;;;;;;;7.75;6.95;;;12.80;98.30;;;;;;5026038;28;20410;-47
2023/04/10 09:30:02;;;;;;;;;;;12.40;99.90;;;;;;5025902;28;20060;-48
2023/04/10 09:32:44;;;;;;;7.28;5.95;;;12.10;99.90;;;;;;5025712;28;19925;-48
2023/04/10 09:35:13;;;;;;;8.10;6.13;;;12.10;99.90;;;;;;5021226;28;20513;-47
2023/04/10 09:37:44;;;;;;;6.97;6.25;;;12.20;99.90;;;;;;5025261;28;20050;-47
2023/04/10 09:40:25;;;;;;;11.35;7.57;;;12.00;99.90;;;;;;5023643;28;20046;-47
2023/04/10 09:42:55;;;;;;;6.97;5.65;;;11.80;99.90;;;;;;5024867;28;20072;-47
2023/04/10 09:45:22;;;;;;;7.97;6.30;;;11.60;99.90;;;;;;5025772;28;20060;-47
2023/04/10 09:48:06;;;;;;;13.40;7.35;;;11.50;99.90;;;;;;5025418;28;20037;-47
2023/04/10 09:50:39;;;;;;;8.77;5.30;;;11.30;99.90;;;;;;5022148;28;20409;-46
2023/04/10 09:53:20;;;;;;;7.00;6.30;;;11.20;99.90;;;;;;5025694;28;20041;-47
2023/04/10 09:55:49;;;;;;;8.98;5.95;;;11.50;99.90;;;;;;5022999;28;20046;-47
2023/04/10 09:58:17;;;;;;;5.93;5.32;;;11.50;99.90;;;;;;5025466;28;20049;-47
2023/04/10 10:00:48;;;;;;;7.00;4.85;;;11.30;99.90;;;;;;5024572;28;20049;-48
2023/04/10 10:03:19;;;;;;;7.43;6.22;;;11.10;99.90;;;;;;5024820;28;20038;-47
2023/04/10 10:05:49;;;;;;;6.05;5.45;;;11.40;99.90;;;;;;5023056;28;20049;-48
2023/04/10 10:08:17;;;;;;;8.90;6.25;;;11.60;99.90;;;;;;5024801;28;20387;-48
2023/04/10 10:10:53;;;;;;;6.93;6.00;;;11.70;99.90;;;;;;5024487;28;20428;-47
2023/04/10 10:13:30;;;;;;;6.95;6.28;;;11.60;99.90;;;;;;5026249;28;20077;-47
2023/04/10 10:16:19;;;;;;;10.15;5.53;;;11.60;99.90;;;;;;5024585;28;20038;-47
2023/04/10 10:19:12;;;;;;;8.32;6.20;;;11.60;99.90;;;;;;5023152;28;20410;-47
2023/04/10 10:21:43;;;;;;;5.05;3.95;;;11.70;99.90;;;;;;5024363;28;20057;-47
2023/04/10 10:24:11;;;;;;;6.80;5.35;;;11.80;99.90;;;;;;5024856;28;20522;-47
2023/04/10 10:26:40;;;;;;;5.80;5.30;;;12.00;99.90;;;;;;5025323;28;20046;-47
2023/04/10 10:29:12;;;;;;;4.15;3.83;;;12.10;99.90;;;;;;5025546;28;20326;-48
2023/04/10 10:31:41;;;;;;;7.00;4.82;;;12.00;99.90;;;;;;5023176;28;20056;-47
2023/04/10 10:34:09;;;;;;;8.45;5.22;;;12.00;98.80;;;;;;5021193;28;20591;-47
2023/04/10 10:36:39;;;;;;;6.63;4.03;;;11.90;99.90;;;;;;5025244;28;20048;-47
2023/04/10 10:39:39;;;;;;;6.00;4.13;;;11.90;99.90;;;;;;5024693;28;20081;-47
2023/04/10 10:42:34;;;;;;;5.25;3.17;;;11.80;99.90;;;;;;5020844;28;20406;-47
2023/04/10 10:45:18;;;;;;;4.68;4.18;;;11.80;99.90;;;;;;5019567;28;20057;-46
2023/04/10 10:47:50;;;;;;;6.53;4.88;;;11.80;99.90;;;;;;5024921;28;20076;-46
2023/04/10 10:50:18;;;;;;;7.95;4.70;;;11.90;99.90;;;;;;5022503;28;20060;-47
2023/04/10 10:52:48;;;;;;;4.63;3.70;;;12.10;99.90;;;;;;5010072;28;20474;-47
2023/04/10 10:55:26;;;;;;;5.03;3.73;;;12.10;99.80;;;;;;5022139;28;20053;-46
2023/04/10 10:57:54;;;;;;;4.97;4.57;;;11.90;99.90;;;;;;5028777;28;20049;-47
2023/04/10 11:00:24;;;;;;;5.13;3.05;;;11.80;96.80;;;;;;5024288;28;20084;-46
2023/04/10 11:03:07;;;;;;;6.80;4.53;;;11.70;98.40;;;;;;5025034;28;20383;-47
2023/04/10 11:06:05;;;;;;;4.47;4.05;;;11.70;98.20;;;;;;5025383;28;20056;-46
2023/04/10 11:08:44;;;;;;;4.90;4.47;;;11.90;97.30;;;;;;5009375;28;20052;-47
2023/04/10 11:11:18;;;;;;;4.82;4.13;;;11.90;99.90;;;;;;5023087;28;20038;-47
2023/04/10 11:13:50;;;;;;;7.03;5.32;;;11.90;99.90;;;;;;5024773;28;20045;-46
2023/04/10 11:16:22;;;;;;;5.18;4.47;;;11.90;99.90;;;;;;5023345;28;20045;-47
2023/04/10 11:18:50;;;;;;;6.50;5.10;;;12.00;99.90;;;;;;5021707;28;20052;-47
2023/04/10 11:22:00;;;;;;;5.93;4.55;;;12.10;99.50;;;;;;5022976;28;20282;-47
2023/04/10 11:24:29;;;;;;;6.85;5.05;;;12.20;98.90;;;;;;4998208;28;20390;-46
2023/04/10 11:26:57;;;;;;;4.95;3.95;;;12.40;99.90;;;;;;5024095;28;20176;-47
2023/04/10 11:29:28;;;;;;;5.03;3.42;;;12.60;96.30;;;;;;5023098;28;20048;-46
2023/04/10 11:32:03;;;;;;;6.20;3.72;;;12.60;95.30;;;;;;5022947;28;20057;-46
2023/04/10 11:34:32;;;;;;;4.75;4.07;;;12.70;95.10;;;;;;5021720;28;20533;-47
2023/04/10 11:37:01;;;;;;;3.60;2.92;;;12.60;98.60;;;;;;5024095;28;20049;-46
2023/04/10 11:39:30;;;;;;;2.92;2.63;;;12.40;87.00;;;;;;5022698;28;20061;-46
2023/04/10 11:41:58;;;;;;;4.05;3.45;;;12.40;87.70;;;;;;5022977;28;20050;-46
2023/04/10 11:44:38;;;;;;;3.88;3.47;;;12.40;93.30;;;;;;5021661;28;20049;-46
2023/04/10 11:47:06;;;;;;;4.20;3.25;;;12.30;93.00;;;;;;5023402;28;20054;-46
2023/04/10 11:49:35;;;;;;;5.68;3.53;;;12.50;93.90;;;;;;5024030;28;20069;-46
2023/04/10 11:52:03;;;;;;;4.55;3.85;;;12.60;94.50;;;;;;5022791;28;20057;-46
2023/04/10 11:54:31;;;;;;;3.15;2.88;;;12.50;95.30;;;;;;5027957;28;20053;-46
2023/04/10 11:56:58;;;;;;;5.15;3.78;;;12.70;93.60;;;;;;5031982;28;20046;-46
2023/04/10 11:59:27;;;;;;;3.90;3.08;;;12.90;95.90;;;;;;5020104;28;20595;-45
2023/04/10 12:02:06;;;;;;;3.88;2.78;;;13.10;91.70;;;;;;5023036;28;20057;-46
2023/04/10 12:04:34;;;;;;;3.83;3.38;;;13.10;88.50;;;;;;5021902;28;20049;-46
2023/04/10 12:07:02;;;;;;;5.85;3.80;;;13.10;89.50;;;;;;5022957;28;20485;-46
2023/04/10 12:09:30;;;;;;;4.03;3.58;;;13.00;90.40;;;;;;5015485;28;20398;-46
2023/04/10 12:12:00;;;;;;;16.95;6.18;;;13.20;92.30;;;;;;5025242;28;20050;-34
2023/04/10 12:14:36;;;;;;;5.32;3.97;;;13.40;90.90;;;;;;5018791;28;20050;-34
2023/04/10 12:17:11;;;;;;;4.47;2.88;;;13.30;87.70;;;;;;5023167;28;20422;-34
2023/04/10 12:19:39;;;;;;;5.15;4.05;;;13.00;90.90;;;;;;5023104;28;20397;-35
2023/04/10 12:22:10;;;;;;;3.97;3.58;;;13.10;90.90;;;;;;5031018;28;22501;-35
2023/04/10 12:24:46;;;;;;;5.32;4.35;;;13.20;86.70;;;;;;5026449;28;20056;-35
2023/04/10 12:27:27;;;;;;;3.60;3.10;;;13.40;84.10;;;;;;5016351;28;20057;-35
2023/04/10 12:29:56;;;;;;;5.22;3.05;;;13.50;88.20;;;;;;5015252;28;20673;-36
2023/04/10 12:32:26;;;;;;;4.93;3.53;;;13.40;86.80;;;;;;5017997;28;20049;-35
2023/04/10 12:34:56;;;;;;;4.30;3.67;;;13.30;90.50;;;;;;5026427;28;20048;-36
2023/04/10 12:37:45;;;;;;;3.65;3.30;;;13.30;91.20;;;;;;5017178;28;20766;-35
2023/04/10 12:40:13;;;;;;;3.42;3.10;;;13.40;91.40;;;;;;5021301;28;20053;-47
2023/04/10 12:42:41;;;;;;;4.63;3.83;;;13.60;88.80;;;;;;5021735;28;20407;-47
2023/04/10 12:45:12;;;;;;;3.08;2.75;;;13.50;90.70;;;;;;5020242;28;20057;-47
2023/04/10 12:47:50;;;;;;;5.10;3.85;;;13.50;85.20;;;;;;5026818;28;20045;-47
2023/04/10 12:50:22;;;;;;;3.97;2.83;;;13.40;81.60;;;;;;5018159;28;20085;-47
2023/04/10 12:53:05;;;;;;;4.15;3.42;;;13.20;84.10;;;;;;5025027;28;20049;-47
2023/04/10 12:55:33;;;;;;;5.40;4.05;;;12.90;85.00;;;;;;5023333;28;20049;-47
2023/04/10 12:58:16;;;;;;;4.13;2.92;;;12.90;87.20;;;;;;5023358;28;20064;-47
2023/04/10 13:00:45;;;;;;;3.70;3.38;;;12.90;86.40;;;;;;5025645;28;20048;-47
2023/04/10 13:03:13;;;;;;;4.07;3.60;;;13.00;86.80;;;;;;5026464;28;20045;-47
2023/04/10 13:05:40;;;;;;;3.50;2.60;;;13.50;88.80;;;;;;5021388;28;20418;-47
2023/04/10 13:08:08;;;;;;;4.60;3.30;;;13.60;79.80;;;;;;5025500;28;20497;-47
2023/04/10 13:10:37;;;;;;;4.25;3.75;;;13.30;83.30;;;;;;5022755;28;20050;-47